Time;durP1;ratioP1;P1;durP2;ratioP2;P2;SDS_P1;SDS_P2;PMS_P1;PMS_P2;Temp;Humidity;BMP_temperature;BMP_pressure;BME280_temperature;BME280_humidity;BME280_pressure;Samples;Min_cycle;Max_cycle;Signal;HPM_P1;HPM_P2
2022/07/23 00:00:00;;;;;;;4.20;3.42;;;;;;;17.51;73.12;101843.66;5026892;28;20096;-57
2022/07/23 00:02:25;;;;;;;6.30;3.80;;;;;;;17.47;73.49;101834.34;5028307;28;20113;-57
2022/07/23 00:04:50;;;;;;;7.22;3.53;;;;;;;17.41;73.21;101833.25;5026169;28;20030;-57
2022/07/23 00:07:16;;;;;;;6.63;3.72;;;;;;;17.34;73.42;101835.00;5032073;28;20018;-57
2022/07/23 00:09:42;;;;;;;5.90;3.65;;;;;;;17.22;73.67;101837.38;5031081;28;20032;-58
2022/07/23 00:12:07;;;;;;;6.47;3.72;;;;;;;17.24;73.39;101842.56;5031969;28;20029;-57
2022/07/23 00:14:32;;;;;;;5.60;3.60;;;;;;;17.20;73.82;101835.91;5030280;28;20629;-57
2022/07/23 00:16:57;;;;;;;7.03;4.00;;;;;;;17.14;73.77;101839.34;5026240;28;20570;-55
2022/07/23 00:19:23;;;;;;;5.85;4.13;;;;;;;17.15;74.09;101838.31;5027473;28;20033;-57
2022/07/23 00:21:48;;;;;;;7.32;4.57;;;;;;;17.13;74.20;101833.16;5038114;28;20030;-56
2022/07/23 00:24:13;;;;;;;7.03;4.75;;;;;;;17.12;74.23;101828.81;5026298;28;20465;-56
2022/07/23 00:26:38;;;;;;;7.60;5.18;;;;;;;17.09;74.15;101825.69;5022221;28;20637;-57
2022/07/23 00:29:04;;;;;;;8.95;5.30;;;;;;;17.07;74.22;101825.03;5024274;28;20037;-57
2022/07/23 00:31:29;;;;;;;7.38;5.50;;;;;;;16.95;74.10;101820.13;5025018;28;20028;-57
2022/07/23 00:33:56;;;;;;;6.30;5.28;;;;;;;16.99;74.35;101831.31;5027324;28;20022;-54
2022/07/23 00:36:23;;;;;;;8.48;6.45;;;;;;;16.94;74.16;101831.06;5023189;28;20061;-57
2022/07/23 00:38:49;;;;;;;13.40;9.77;;;;;;;16.97;74.63;101822.63;5023290;28;20511;-57
2022/07/23 00:41:14;;;;;;;15.45;12.05;;;;;;;16.92;74.40;101817.84;5028613;28;20041;-54
2022/07/23 00:43:39;;;;;;;15.15;10.98;;;;;;;16.92;74.59;101817.00;5015033;28;20029;-56
2022/07/23 00:46:04;;;;;;;11.35;7.18;;;;;;;16.79;74.43;101822.22;5023207;28;20430;-57
2022/07/23 00:48:30;;;;;;;12.45;8.63;;;;;;;16.63;74.36;101807.13;5026761;28;20037;-57
2022/07/23 00:50:55;;;;;;;12.32;9.88;;;;;;;16.61;74.59;101826.06;5025733;28;20033;-57
2022/07/23 00:53:20;;;;;;;13.35;10.45;;;;;;;16.50;74.86;101828.41;5032107;28;20518;-56
2022/07/23 00:55:47;;;;;;;14.48;12.38;;;;;;;16.56;74.94;101822.28;5021698;28;20029;-57
2022/07/23 00:58:13;;;;;;;16.25;12.23;;;;;;;16.56;75.24;101825.81;5033404;28;20032;-57
2022/07/23 01:00:38;;;;;;;15.02;11.55;;;;;;;16.43;75.00;101821.06;5027097;28;20434;-57
2022/07/23 01:03:04;;;;;;;14.52;12.80;;;;;;;16.42;75.24;101827.47;5029934;28;20018;-54
2022/07/23 01:05:29;;;;;;;13.55;11.55;;;;;;;16.36;75.23;101817.47;5025500;28;20479;-58
2022/07/23 01:07:54;;;;;;;16.75;11.50;;;;;;;16.33;75.61;101817.03;5034163;28;20048;-57
2022/07/23 01:10:32;;;;;;;14.95;12.80;;;;;;;16.30;75.54;101817.41;5032392;28;20036;-57
2022/07/23 01:13:05;;;;;;;20.52;13.57;;;;;;;16.32;76.04;101818.88;5030517;28;20433;-57
2022/07/23 01:15:32;;;;;;;16.65;12.45;;;;;;;16.30;75.54;101812.88;5029754;28;20029;-56
2022/07/23 01:17:58;;;;;;;13.32;11.80;;;;;;;16.25;75.65;101814.44;5032324;28;20033;-57
2022/07/23 01:20:23;;;;;;;17.08;11.68;;;;;;;16.15;75.55;101820.03;5029576;28;20054;-57
2022/07/23 01:22:48;;;;;;;14.63;11.18;;;;;;;16.03;75.49;101813.47;5015852;28;20039;-57
2022/07/23 01:25:14;;;;;;;14.30;11.85;;;;;;;15.96;75.45;101813.38;5021668;28;20036;-56
2022/07/23 01:27:39;;;;;;;18.05;13.15;;;;;;;15.95;75.55;101810.88;5033586;28;20036;-55
2022/07/23 01:30:05;;;;;;;17.95;13.20;;;;;;;15.86;76.02;101809.28;5022709;28;20064;-57
2022/07/23 01:32:31;;;;;;;17.33;13.93;;;;;;;15.82;76.13;101802.63;5020512;28;20032;-55
2022/07/23 01:34:56;;;;;;;16.38;13.07;;;;;;;15.74;76.53;101796.34;5026436;28;20021;-56
2022/07/23 01:37:21;;;;;;;16.80;13.80;;;;;;;15.74;76.73;101801.69;5028178;28;20029;-53
2022/07/23 01:39:47;;;;;;;20.73;14.45;;;;;;;15.67;77.13;101800.75;5029673;28;20025;-57
2022/07/23 01:42:12;;;;;;;17.00;13.32;;;;;;;15.64;77.31;101806.47;5025198;28;20036;-57
2022/07/23 01:44:37;;;;;;;17.13;13.32;;;;;;;15.61;77.60;101804.16;5027444;28;20036;-57
2022/07/23 01:47:03;;;;;;;17.70;12.98;;;;;;;15.58;77.22;101806.31;5025918;28;20529;-57
2022/07/23 01:49:28;;;;;;;15.88;12.75;;;;;;;15.59;77.46;101805.31;5022496;28;20038;-57
2022/07/23 01:51:59;;;;;;;14.60;12.80;;;;;;;15.57;77.49;101804.66;5024336;28;20033;-55
2022/07/23 01:54:26;;;;;;;15.88;11.45;;;;;;;15.58;77.54;101809.84;5024106;28;20146;-57
2022/07/23 01:56:51;;;;;;;13.40;10.68;;;;;;;15.65;77.49;101804.63;5021914;28;20037;-57
2022/07/23 01:59:16;;;;;;;14.52;11.32;;;;;;;15.63;77.57;101803.97;5025327;28;20049;-56
2022/07/23 02:01:42;;;;;;;12.38;10.52;;;;;;;15.62;77.79;101805.81;5028675;28;20021;-55
2022/07/23 02:04:07;;;;;;;11.23;9.80;;;;;;;15.66;77.92;101795.59;5029721;28;20732;-57
2022/07/23 02:06:32;;;;;;;15.70;10.90;;;;;;;15.63;77.95;101801.31;5035520;28;20080;-56
2022/07/23 02:08:57;;;;;;;12.80;10.88;;;;;;;15.61;78.05;101793.44;5030033;28;20025;-55
2022/07/23 02:11:23;;;;;;;15.23;9.63;;;;;;;15.56;78.55;101797.63;5035383;28;20652;-54
2022/07/23 02:13:48;;;;;;;12.55;9.93;;;;;;;15.55;78.41;101793.28;5027200;28;20022;-57
2022/07/23 02:16:13;;;;;;;16.27;10.68;;;;;;;15.52;78.35;101791.78;5038616;28;20020;-57
2022/07/23 02:18:38;;;;;;;10.77;9.68;;;;;;;15.50;78.76;101786.63;5031378;28;20041;-55
2022/07/23 02:21:04;;;;;;;12.85;9.50;;;;;;;15.46;78.35;101787.16;5029775;28;20025;-57
2022/07/23 02:23:29;;;;;;;14.57;10.02;;;;;;;15.36;78.28;101791.94;5026341;28;20028;-57
2022/07/23 02:25:54;;;;;;;12.07;9.90;;;;;;;15.34;77.82;101788.63;5031420;28;20025;-56
2022/07/23 02:28:19;;;;;;;13.40;9.63;;;;;;;15.22;77.70;101784.66;5029018;28;20091;-56
2022/07/23 02:30:45;;;;;;;11.60;9.32;;;;;;;15.19;77.70;101789.38;5027283;28;20025;-57
2022/07/23 02:33:10;;;;;;;11.02;8.80;;;;;;;15.15;77.98;101798.75;5030311;28;20029;-57
2022/07/23 02:35:35;;;;;;;10.90;9.63;;;;;;;15.05;78.23;101803.53;5030006;28;20028;-56
2022/07/23 02:38:01;;;;;;;9.32;8.27;;;;;;;14.97;77.88;101798.19;5027953;28;20395;-57
2022/07/23 02:40:26;;;;;;;10.70;8.32;;;;;;;14.93;77.96;101804.06;5029309;28;20043;-57
2022/07/23 02:42:51;;;;;;;8.95;8.05;;;;;;;14.84;78.75;101806.81;5033419;28;20021;-56
2022/07/23 02:45:16;;;;;;;10.63;8.05;;;;;;;14.79;78.64;101803.81;5032267;28;20048;-57
2022/07/23 02:47:42;;;;;;;9.55;8.07;;;;;;;14.71;78.47;101805.69;5029398;28;20030;-56
2022/07/23 02:50:07;;;;;;;8.98;7.63;;;;;;;14.62;78.29;101810.22;5031573;28;20033;-57
2022/07/23 02:52:33;;;;;;;8.55;7.22;;;;;;;14.57;78.44;101804.56;5038121;28;20028;-56
2022/07/23 02:54:58;;;;;;;9.35;7.70;;;;;;;14.51;78.81;101805.28;5026787;28;20117;-56
2022/07/23 02:57:23;;;;;;;9.75;7.65;;;;;;;14.49;78.59;101812.63;5031289;28;20104;-55
2022/07/23 02:59:49;;;;;;;9.32;7.05;;;;;;;14.46;78.64;101808.47;5029662;28;20021;-56
2022/07/23 03:02:14;;;;;;;8.38;7.50;;;;;;;14.54;78.98;101811.09;5028472;28;20057;-57
2022/07/23 03:04:42;;;;;;;9.25;7.75;;;;;;;14.52;78.50;101804.28;5027650;28;20025;-57
2022/07/23 03:07:07;;;;;;;11.65;8.23;;;;;;;14.55;79.21;101807.44;5032035;28;20017;-56
2022/07/23 03:09:32;;;;;;;9.07;7.80;;;;;;;14.52;79.21;101810.44;5028480;28;20364;-57
2022/07/23 03:11:58;;;;;;;10.07;7.78;;;;;;;14.57;79.24;101815.28;5031449;28;20022;-56
2022/07/23 03:14:23;;;;;;;9.48;7.40;;;;;;;14.50;79.75;101812.47;5025680;28;20029;-57
2022/07/23 03:16:50;;;;;;;9.48;7.07;;;;;;;14.49;79.53;101821.50;5023268;28;20048;-57
2022/07/23 03:19:15;;;;;;;8.40;7.50;;;;;;;14.44;79.08;101831.84;5029402;28;20029;-57
2022/07/23 03:21:40;;;;;;;10.40;7.10;;;;;;;14.35;79.13;101824.81;5029833;28;20033;-57
2022/07/23 03:24:09;;;;;;;10.45;7.57;;;;;;;14.31;79.17;101830.69;5021746;28;20067;-57
2022/07/23 03:26:34;;;;;;;9.93;8.15;;;;;;;14.29;79.43;101814.81;5023151;28;20037;-56
2022/07/23 03:29:01;;;;;;;11.60;8.20;;;;;;;14.25;79.72;101813.50;5025425;28;20460;-57
2022/07/23 03:31:26;;;;;;;10.82;8.20;;;;;;;14.26;80.23;101817.84;5033563;28;20107;-57
2022/07/23 03:33:51;;;;;;;9.13;7.15;;;;;;;14.20;79.84;101821.19;5034083;28;20144;-57
2022/07/23 03:36:17;;;;;;;8.60;6.93;;;;;;;14.16;79.72;101819.84;5024613;28;20064;-56
2022/07/23 03:38:42;;;;;;;8.23;6.80;;;;;;;14.08;79.93;101827.88;5027665;28;20061;-55
2022/07/23 03:41:07;;;;;;;12.02;7.82;;;;;;;14.07;79.74;101824.38;5031670;28;20029;-55
2022/07/23 03:43:33;;;;;;;8.13;7.25;;;;;;;14.01;79.98;101822.38;5021646;28;20029;-57
2022/07/23 03:45:58;;;;;;;11.00;7.80;;;;;;;14.04;80.10;101815.88;5017299;28;20033;-54
2022/07/23 03:48:23;;;;;;;9.38;7.45;;;;;;;14.03;80.73;101815.03;5025332;28;20112;-57
2022/07/23 03:50:49;;;;;;;10.63;7.68;;;;;;;14.06;80.90;101813.88;5030304;28;20025;-53
2022/07/23 03:53:14;;;;;;;11.27;7.90;;;;;;;14.03;80.85;101815.03;5027916;28;20106;-55
2022/07/23 03:55:39;;;;;;;14.48;8.38;;;;;;;14.04;80.49;101819.38;5028947;28;20045;-55
2022/07/23 03:58:05;;;;;;;8.90;7.75;;;;;;;14.02;80.95;101820.56;5025439;28;20100;-57
2022/07/23 04:00:30;;;;;;;11.52;8.10;;;;;;;14.05;81.07;101822.88;5036093;28;20180;-57
2022/07/23 04:02:55;;;;;;;8.43;7.57;;;;;;;14.01;80.98;101822.38;5034235;28;20108;-57
2022/07/23 04:05:21;;;;;;;9.40;7.30;;;;;;;14.00;80.65;101819.88;5029153;28;20057;-56
2022/07/23 04:07:46;;;;;;;11.20;7.88;;;;;;;14.02;80.81;101833.91;5027615;28;20136;-56
2022/07/23 04:10:11;;;;;;;9.15;7.10;;;;;;;13.88;81.15;101817.56;5028341;28;20056;-55
2022/07/23 04:12:37;;;;;;;8.32;7.10;;;;;;;13.91;80.56;101830.59;5027952;28;20592;-56
2022/07/23 04:15:02;;;;;;;8.70;7.13;;;;;;;13.88;80.67;101840.78;5027290;28;20434;-54
2022/07/23 04:17:28;;;;;;;7.57;6.78;;;;;;;13.77;80.58;101828.56;5034106;28;20036;-55
2022/07/23 04:19:53;;;;;;;8.52;7.15;;;;;;;13.81;80.55;101837.91;5024396;28;20102;-56
2022/07/23 04:22:19;;;;;;;8.52;7.50;;;;;;;13.78;81.19;101832.06;5022632;28;20116;-55
2022/07/23 04:24:44;;;;;;;9.65;7.10;;;;;;;13.83;81.24;101838.56;5025067;28;20033;-57
2022/07/23 04:27:09;;;;;;;7.38;6.18;;;;;;;13.84;81.82;101836.75;5022826;28;20037;-56
2022/07/23 04:29:34;;;;;;;6.75;5.95;;;;;;;13.83;81.95;101841.25;5016783;28;20036;-56
2022/07/23 04:32:00;;;;;;;8.57;6.55;;;;;;;13.85;81.56;101841.06;5017524;28;20017;-55
2022/07/23 04:34:26;;;;;;;10.63;6.63;;;;;;;13.87;81.82;101836.41;5023766;28;20685;-56
2022/07/23 04:36:52;;;;;;;13.90;7.82;;;;;;;13.95;82.35;101844.44;5022845;28;20036;-54
2022/07/23 04:39:17;;;;;;;10.27;7.80;;;;;;;13.93;82.52;101846.44;5026088;28;20034;-57
2022/07/23 04:41:43;;;;;;;10.93;7.78;;;;;;;13.92;82.80;101844.78;5024274;28;20029;-57
2022/07/23 04:44:08;;;;;;;10.57;8.27;;;;;;;13.98;82.76;101852.09;5024988;28;20037;-56
2022/07/23 04:46:33;;;;;;;14.35;8.90;;;;;;;14.01;83.17;101851.75;5023137;28;20423;-55
2022/07/23 04:48:58;;;;;;;9.50;8.15;;;;;;;14.01;83.30;101856.28;5025764;28;20029;-56
2022/07/23 04:51:24;;;;;;;9.52;8.00;;;;;;;13.99;83.39;101855.63;5029493;28;20025;-55
2022/07/23 04:53:49;;;;;;;11.32;8.15;;;;;;;13.92;83.44;101853.63;5021759;28;20347;-57
2022/07/23 04:56:15;;;;;;;10.15;8.05;;;;;;;13.90;83.34;101862.81;5022859;28;20383;-54
2022/07/23 04:58:41;;;;;;;11.10;8.80;;;;;;;13.98;83.85;101865.47;5021578;28;20025;-56
2022/07/23 05:01:06;;;;;;;11.82;9.05;;;;;;;14.01;83.98;101865.13;5033077;28;20023;-55
2022/07/23 05:03:31;;;;;;;10.30;9.18;;;;;;;14.04;84.20;101872.78;5015709;28;20021;-54
2022/07/23 05:05:56;;;;;;;13.13;9.63;;;;;;;14.14;84.08;101856.59;5023796;28;20026;-54
2022/07/23 05:08:22;;;;;;;10.88;9.10;;;;;;;14.22;84.51;101862.78;5023423;28;20039;-55
2022/07/23 05:10:47;;;;;;;10.80;8.73;;;;;;;14.30;84.52;101859.25;5025582;28;20029;-54
2022/07/23 05:13:16;;;;;;;12.15;8.90;;;;;;;14.36;84.59;101860.41;5023133;28;20056;-56
2022/07/23 05:15:41;;;;;;;11.63;8.73;;;;;;;14.39;84.55;101863.56;5025484;28;20021;-56
2022/07/23 05:18:07;;;;;;;14.63;8.98;;;;;;;14.44;84.71;101871.94;5026853;28;20358;-55
2022/07/23 05:20:32;;;;;;;11.77;9.23;;;;;;;14.48;85.33;101867.09;5021583;28;20044;-56
2022/07/23 05:22:57;;;;;;;10.07;9.07;;;;;;;14.53;84.88;101876.25;5017127;28;20030;-54
2022/07/23 05:25:22;;;;;;;10.68;9.30;;;;;;;14.59;85.28;101866.72;5023090;28;20463;-54
2022/07/23 05:27:48;;;;;;;13.10;9.93;;;;;;;14.67;85.56;101876.53;5026756;28;20040;-56
2022/07/23 05:30:13;;;;;;;12.15;9.98;;;;;;;14.72;85.44;101874.19;5020485;28;20032;-57
2022/07/23 05:32:38;;;;;;;11.13;9.82;;;;;;;14.70;85.60;101877.03;5015649;28;20554;-56
2022/07/23 05:35:05;;;;;;;11.98;9.93;;;;;;;14.80;85.92;101883.03;5021938;28;20022;-56
2022/07/23 05:37:31;;;;;;;14.80;10.77;;;;;;;14.92;86.11;101885.31;5017010;28;20024;-55
2022/07/23 05:40:04;;;;;;;12.60;10.23;;;;;;;15.02;86.35;101888.59;5016497;28;20088;-56
2022/07/23 05:42:29;;;;;;;12.80;10.55;;;;;;;15.16;86.00;101878.03;5019220;28;20492;-54
2022/07/23 05:44:54;;;;;;;17.58;10.38;;;;;;;15.29;86.25;101885.47;5021966;28;20018;-56
2022/07/23 05:47:20;;;;;;;14.27;10.20;;;;;;;15.32;85.82;101887.78;5026894;28;20116;-56
2022/07/23 05:49:45;;;;;;;12.98;10.35;;;;;;;15.42;85.67;101892.94;5020751;28;20034;-55
2022/07/23 05:52:10;;;;;;;15.68;9.60;;;;;;;15.46;85.22;101889.72;5021090;28;20490;-54
2022/07/23 05:54:36;;;;;;;16.33;10.30;;;;;;;15.59;85.17;101891.84;5020360;28;20180;-56
2022/07/23 05:57:02;;;;;;;15.48;10.68;;;;;;;15.73;85.27;101896.44;5023383;28;20025;-55
2022/07/23 05:59:27;;;;;;;14.48;9.93;;;;;;;15.88;85.16;101890.28;5025251;28;20025;-56
2022/07/23 06:01:53;;;;;;;10.35;9.25;;;;;;;15.99;85.25;101890.72;5022122;28;20030;-57
2022/07/23 06:04:18;;;;;;;15.13;10.18;;;;;;;16.11;84.72;101897.28;5025132;28;20597;-54
2022/07/23 06:06:43;;;;;;;12.00;9.70;;;;;;;16.25;84.35;101902.88;5031928;28;20045;-56
2022/07/23 06:09:10;;;;;;;13.10;9.23;;;;;;;16.32;84.17;101907.34;5022932;28;20028;-57
2022/07/23 06:11:36;;;;;;;11.18;9.18;;;;;;;16.41;84.20;101903.53;5034148;28;20036;-56
2022/07/23 06:14:01;;;;;;;9.73;8.43;;;;;;;16.47;83.29;101898.47;5029355;28;20394;-55
2022/07/23 06:16:26;;;;;;;12.57;8.32;;;;;;;16.54;83.12;101904.78;5025302;28;20048;-54
2022/07/23 06:18:51;;;;;;;12.77;8.15;;;;;;;16.60;83.30;101906.72;5022216;28;20038;-56
2022/07/23 06:21:17;;;;;;;10.75;8.30;;;;;;;16.60;82.96;101909.41;5025829;28;20030;-53
2022/07/23 06:23:42;;;;;;;10.07;8.48;;;;;;;16.62;82.72;101902.00;5030446;28;20386;-56
2022/07/23 06:26:07;;;;;;;11.68;8.30;;;;;;;16.64;82.17;101910.69;5023757;28;20093;-57
2022/07/23 06:28:32;;;;;;;12.23;8.23;;;;;;;16.64;81.74;101906.16;5028873;28;20021;-57
2022/07/23 06:30:58;;;;;;;12.55;8.27;;;;;;;16.72;81.80;101911.47;5026084;28;20021;-56
2022/07/23 06:33:23;;;;;;;9.77;8.35;;;;;;;16.79;81.69;101913.44;5028248;28;20032;-54
2022/07/23 06:35:48;;;;;;;15.77;9.27;;;;;;;16.78;81.21;101911.78;5029493;28;20101;-57
2022/07/23 06:38:14;;;;;;;13.88;9.20;;;;;;;16.82;80.80;101913.06;5040893;28;20409;-56
2022/07/23 06:40:39;;;;;;;11.65;9.10;;;;;;;16.85;81.05;101915.38;5024843;28;20033;-57
2022/07/23 06:43:04;;;;;;;11.32;8.15;;;;;;;16.87;80.42;101914.16;5022173;28;20021;-56
2022/07/23 06:45:29;;;;;;;13.52;8.70;;;;;;;16.97;80.69;101916.56;5027686;28;20072;-57
2022/07/23 06:47:55;;;;;;;12.40;8.20;;;;;;;17.04;80.18;101912.94;5023996;28;20442;-54
2022/07/23 06:50:20;;;;;;;9.75;7.95;;;;;;;17.13;80.01;101920.91;5030218;28;20549;-56
2022/07/23 06:52:45;;;;;;;13.35;8.30;;;;;;;17.19;80.05;101907.56;5035800;28;20029;-56
2022/07/23 06:55:11;;;;;;;9.00;7.72;;;;;;;17.25;79.98;101909.47;5029684;28;20221;-56
2022/07/23 06:57:36;;;;;;;8.02;6.95;;;;;;;17.34;79.77;101913.72;5027844;28;20502;-57
2022/07/23 07:00:03;;;;;;;8.50;5.65;;;;;;;17.35;79.62;101919.94;5027179;28;20122;-55
2022/07/23 07:02:29;;;;;;;7.95;6.45;;;;;;;17.40;78.77;101922.88;5027714;28;20036;-56
2022/07/23 07:04:54;;;;;;;8.75;6.38;;;;;;;17.51;78.46;101919.69;5025901;28;20022;-57
2022/07/23 07:07:20;;;;;;;12.23;6.20;;;;;;;17.51;78.35;101919.69;5029006;28;20029;-56
2022/07/23 07:09:45;;;;;;;6.57;5.03;;;;;;;17.52;77.95;101913.31;5029904;28;20021;-57
2022/07/23 07:12:11;;;;;;;9.77;5.93;;;;;;;17.62;77.57;101911.13;5026015;28;20398;-57
2022/07/23 07:14:37;;;;;;;12.75;6.03;;;;;;;17.73;77.31;101920.59;5033224;28;20028;-57
2022/07/23 07:17:02;;;;;;;11.98;6.63;;;;;;;17.81;77.09;101925.00;5027451;28;20033;-56
2022/07/23 07:19:27;;;;;;;10.77;6.32;;;;;;;17.85;77.01;101920.91;5022271;28;20022;-56
2022/07/23 07:21:53;;;;;;;8.73;6.03;;;;;;;17.83;76.77;101914.88;5026648;28;20028;-56
2022/07/23 07:24:18;;;;;;;11.90;6.65;;;;;;;17.97;76.51;101915.84;5028542;28;20022;-55
2022/07/23 07:26:43;;;;;;;10.55;6.10;;;;;;;18.05;76.32;101915.72;5028219;28;20429;-57
2022/07/23 07:29:08;;;;;;;6.72;4.97;;;;;;;18.05;75.62;101918.41;5031777;28;20053;-57
2022/07/23 07:31:34;;;;;;;8.27;4.97;;;;;;;18.07;74.82;101925.25;5030653;28;20036;-57
2022/07/23 07:33:59;;;;;;;5.88;4.50;;;;;;;18.09;74.09;101925.06;5034962;28;20021;-57
2022/07/23 07:36:24;;;;;;;7.63;4.28;;;;;;;18.06;73.42;101933.50;5032673;28;20035;-57
2022/07/23 07:38:50;;;;;;;6.10;4.25;;;;;;;18.09;72.72;101935.81;5037055;28;20049;-56
2022/07/23 07:41:15;;;;;;;5.32;4.45;;;;;;;18.03;72.07;101934.72;5027168;28;20125;-57
2022/07/23 07:43:41;;;;;;;7.10;4.68;;;;;;;17.90;71.56;101932.72;5029467;28;20029;-57
2022/07/23 07:46:10;;;;;;;6.30;4.15;;;;;;;17.84;71.50;101935.34;5028486;28;20042;-57
2022/07/23 07:48:37;;;;;;;9.80;4.78;;;;;;;17.89;71.39;101928.38;5028906;28;20025;-55
2022/07/23 07:51:04;;;;;;;7.85;4.40;;;;;;;18.04;71.71;101931.00;5023652;28;20060;-57
2022/07/23 07:53:29;;;;;;;7.80;4.35;;;;;;;18.08;71.69;101931.47;5018858;28;20025;-56
2022/07/23 07:55:54;;;;;;;6.63;4.20;;;;;;;18.20;71.79;101922.66;5031140;28;20021;-56
2022/07/23 07:58:20;;;;;;;6.65;4.18;;;;;;;18.21;70.89;101926.19;5026150;28;20029;-57
2022/07/23 08:00:45;;;;;;;6.30;3.80;;;;;;;18.34;71.19;101937.06;5033197;28;20017;-57
2022/07/23 08:03:10;;;;;;;8.55;4.90;;;;;;;18.36;69.94;101928.78;5022075;28;20446;-55
2022/07/23 08:05:35;;;;;;;7.65;4.20;;;;;;;18.32;70.23;101935.59;5035065;28;20120;-55
2022/07/23 08:08:01;;;;;;;7.50;4.53;;;;;;;18.39;70.21;101942.69;5026591;28;20395;-57
2022/07/23 08:10:28;;;;;;;8.40;4.70;;;;;;;18.42;69.79;101947.66;5028320;28;20060;-57
2022/07/23 08:12:56;;;;;;;6.45;4.72;;;;;;;18.52;69.99;101950.03;5028414;28;20037;-55
2022/07/23 08:15:22;;;;;;;10.18;4.78;;;;;;;18.58;69.97;101944.69;5022131;28;20108;-56
2022/07/23 08:17:49;;;;;;;7.10;4.65;;;;;;;18.65;69.67;101947.47;5028684;28;20029;-55
2022/07/23 08:20:16;;;;;;;7.88;4.45;;;;;;;18.79;69.59;101948.34;5024634;28;20076;-56
2022/07/23 08:22:51;;;;;;;6.35;4.40;;;;;;;18.87;68.89;101946.38;5031375;28;20027;-57
2022/07/23 08:25:21;;;;;;;6.18;4.47;;;;;;;18.96;68.31;101951.56;5027107;28;20018;-56
2022/07/23 08:27:47;;;;;;;8.48;4.50;;;;;;;19.09;68.42;101959.75;5025222;28;20171;-53
2022/07/23 08:30:12;;;;;;;7.80;4.25;;;;;;;19.16;68.09;101960.59;5027717;28;20503;-57
2022/07/23 08:32:52;;;;;;;5.68;4.18;;;;;;;19.28;67.92;101961.69;5032284;28;20091;-56
2022/07/23 08:35:25;;;;;;;6.57;4.68;;;;;;;19.34;67.48;101968.94;5024313;28;20056;-57
2022/07/23 08:37:51;;;;;;;9.48;4.80;;;;;;;19.33;66.63;101969.16;5039511;28;20089;-57
2022/07/23 08:40:16;;;;;;;8.30;4.75;;;;;;;19.46;66.54;101971.91;5029312;28;20449;-57
2022/07/23 08:42:42;;;;;;;7.30;4.70;;;;;;;19.57;66.29;101968.66;5024725;28;20034;-57
2022/07/23 08:45:09;;;;;;;8.18;4.68;;;;;;;19.62;66.23;101970.75;5024047;28;20022;-55
2022/07/23 08:47:36;;;;;;;8.73;5.03;;;;;;;19.80;66.22;101971.00;5023212;28;20033;-56
2022/07/23 08:50:02;;;;;;;8.55;4.85;;;;;;;19.90;65.89;101971.44;5020165;28;20425;-56
2022/07/23 08:52:30;;;;;;;7.03;4.50;;;;;;;20.02;65.12;101975.22;5029119;28;20543;-55
2022/07/23 08:54:57;;;;;;;8.43;4.85;;;;;;;20.06;64.24;101976.47;5028146;28;20025;-56
2022/07/23 08:57:22;;;;;;;5.85;4.47;;;;;;;20.02;63.74;101975.22;5035256;28;20687;-56
2022/07/23 08:59:47;;;;;;;7.45;4.60;;;;;;;20.20;63.82;101974.59;5030843;28;20021;-55
2022/07/23 09:02:12;;;;;;;7.18;4.55;;;;;;;20.24;62.77;101973.16;5031389;28;20018;-56
2022/07/23 09:04:39;;;;;;;5.68;4.03;;;;;;;20.37;62.74;101967.75;5029374;28;20037;-58
2022/07/23 09:07:04;;;;;;;6.07;4.50;;;;;;;20.33;61.93;101960.28;5030325;28;20417;-57
2022/07/23 09:09:31;;;;;;;6.70;4.45;;;;;;;20.63;62.27;101964.25;5033439;28;20027;-58
2022/07/23 09:12:07;;;;;;;6.90;4.25;;;;;;;20.64;61.96;101962.38;5031926;28;20033;-57
2022/07/23 09:14:46;;;;;;;7.40;4.63;;;;;;;20.96;61.87;101960.66;5028662;28;20095;-57
2022/07/23 09:17:16;;;;;;;;;;;;;;;21.11;62.47;101952.31;5027813;28;20033;-57
2022/07/23 09:19:43;;;;;;;7.70;5.10;;;;;;;21.21;62.15;101950.81;5033867;28;20399;-57
2022/07/23 09:22:23;;;;;;;8.27;4.80;;;;;;;21.51;62.07;101955.69;5028090;28;20043;-57
2022/07/23 09:25:15;;;;;;;6.93;5.00;;;;;;;21.73;61.39;101950.78;5028036;28;20475;-58
2022/07/23 09:27:47;;;;;;;6.40;4.43;;;;;;;21.80;60.47;101957.81;5026919;28;20108;-58
2022/07/23 09:30:12;;;;;;;6.70;4.50;;;;;;;21.77;59.95;101954.72;5030430;28;20491;-57
2022/07/23 09:32:39;;;;;;;6.75;4.68;;;;;;;21.85;59.26;101960.69;5031438;28;20583;-57
2022/07/23 09:35:04;;;;;;;6.95;4.40;;;;;;;22.09;59.40;101950.97;5024673;28;20022;-56
2022/07/23 09:37:29;;;;;;;6.65;4.90;;;;;;;22.15;59.80;101954.69;5031086;28;20021;-57
2022/07/23 09:40:06;;;;;;;7.13;5.05;;;;;;;22.18;58.76;101959.66;5025797;28;20569;-56
2022/07/23 09:42:32;;;;;;;6.25;4.47;;;;;;;22.23;58.47;101952.53;5034371;28;20800;-57
2022/07/23 09:44:58;;;;;;;6.00;4.78;;;;;;;22.46;58.69;101970.03;5030340;28;20029;-58
2022/07/23 09:47:27;;;;;;;7.55;5.53;;;;;;;22.25;57.91;101966.66;5037313;28;20037;-57
2022/07/23 09:50:09;;;;;;;8.50;5.03;;;;;;;22.60;58.31;101965.34;5022736;28;20189;-56
2022/07/23 09:52:43;;;;;;;7.18;4.55;;;;;;;22.64;57.95;101967.38;5025015;28;20069;-57
2022/07/23 09:55:09;;;;;;;7.07;4.32;;;;;;;22.93;58.16;101965.03;5021420;28;20637;-57
2022/07/23 09:57:34;;;;;;;5.80;4.20;;;;;;;23.09;57.51;101972.56;5031166;28;20120;-58
2022/07/23 10:00:09;;;;;;;5.03;4.53;;;;;;;23.07;56.12;101970.06;5029108;28;20544;-56
2022/07/23 10:02:35;;;;;;;6.15;4.40;;;;;;;23.19;55.74;101972.88;5021969;28;20092;-58
2022/07/23 10:05:02;;;;;;;7.22;4.40;;;;;;;23.34;55.64;101975.19;5031028;28;20022;-58
2022/07/23 10:07:31;;;;;;;5.93;4.40;;;;;;;23.38;54.69;101966.34;5023983;28;20030;-57
2022/07/23 10:09:57;;;;;;;7.63;4.70;;;;;;;23.25;54.12;101971.13;5020875;28;20049;-57
2022/07/23 10:15:07;;;;;;;6.80;4.15;;;;;;;23.59;54.15;101972.38;5014033;28;21116;-57
2022/07/23 10:17:34;;;;;;;6.15;3.63;;;;;;;23.57;54.00;101972.63;5018807;28;20042;-57
2022/07/23 10:20:00;;;;;;;6.38;3.95;;;;;;;23.53;53.49;101970.56;5032840;28;20056;-58
2022/07/23 10:22:32;;;;;;;7.00;5.70;;;;;;;23.61;53.00;101971.09;5028063;28;20398;-57
2022/07/23 10:25:10;;;;;;;4.97;4.03;;;;;;;23.50;52.53;101966.44;5022478;28;20546;-57
2022/07/23 10:27:54;;;;;;;5.35;3.88;;;;;;;23.56;52.14;101973.69;5026869;28;20495;-57
2022/07/23 10:30:42;;;;;;;9.02;4.22;;;;;;;23.39;51.06;101965.28;5032071;28;20026;-57
2022/07/23 10:33:28;;;;;;;6.53;4.60;;;;;;;23.51;50.76;101968.09;5037696;28;20766;-58
2022/07/23 10:36:06;;;;;;;6.28;4.47;;;;;;;23.37;51.11;101972.84;5028280;28;20026;-58
2022/07/23 10:38:50;;;;;;;7.03;4.60;;;;;;;23.31;51.13;101970.22;5030526;28;20049;-58
2022/07/23 10:41:31;;;;;;;5.25;4.38;;;;;;;23.29;51.57;101966.91;5022668;28;20017;-57
2022/07/23 10:44:11;;;;;;;7.40;4.97;;;;;;;23.17;51.41;101964.97;5025297;28;20076;-57
2022/07/23 10:47:00;;;;;;;7.28;4.95;;;;;;;23.33;51.14;101974.34;5024283;28;20371;-56
2022/07/23 10:49:28;;;;;;;6.30;4.50;;;;;;;23.26;50.76;101967.38;5026071;28;20021;-58
2022/07/23 10:52:15;;;;;;;5.82;4.93;;;;;;;23.15;50.93;101964.38;5032697;28;20053;-57
2022/07/23 10:54:44;;;;;;;7.10;4.53;;;;;;;23.15;50.78;101967.06;5030273;28;20048;-57
2022/07/23 10:57:11;;;;;;;6.90;4.82;;;;;;;23.31;51.19;101964.78;5029446;28;20096;-58
2022/07/23 11:00:11;;;;;;;7.10;4.75;;;;;;;23.60;51.72;101968.63;5028864;28;20402;-57
2022/07/23 11:02:38;;;;;;;7.72;5.07;;;;;;;23.49;51.58;101964.78;5033086;28;20114;-57
2022/07/23 11:05:05;;;;;;;6.47;5.28;;;;;;;23.49;51.05;101978.34;5024518;28;20021;-58
2022/07/23 11:07:30;;;;;;;9.02;5.30;;;;;;;23.53;51.15;101968.69;5027350;28;20402;-58
2022/07/23 11:09:55;;;;;;;7.70;4.93;;;;;;;23.87;52.08;101971.78;5027201;28;20025;-57
2022/07/23 11:12:21;;;;;;;5.72;5.10;;;;;;;24.15;53.14;101966.53;5027724;28;20059;-57
2022/07/23 11:15:06;;;;;;;6.03;5.43;;;;;;;24.30;52.89;101966.97;5032669;28;20021;-57
2022/07/23 11:17:34;;;;;;;5.18;4.40;;;;;;;24.55;52.05;101965.91;5027702;28;20275;-58
2022/07/23 11:20:08;;;;;;;5.93;4.40;;;;;;;24.68;50.74;101971.09;5035056;28;20095;-57
2022/07/23 11:22:37;;;;;;;6.47;4.38;;;;;;;24.39;49.80;101954.69;5023170;28;20303;-58